Nearby METAR Reports

 

EGEO - Oban, United Kingdom
Distance from station: SSW 18mi, 30km
Updated: 21/02/2019 12:50
Partly cloudy
Partly cloudy
 Wind from SSE
Wind: SSE 14 mph , 22 km/h
Temperature: 13°C
Dew Point: 10°C
Humidity: 82%
Barometer: 1018 hPa
Clouds: Partly cloudy
Visibility: 6 miles , 10 km
Cloud details: Few Clouds 427 m
Partly cloudy 975 m
2019/02/21 12:50 EGEO 211250Z 16012KT 9999 FEW014 SCT032 13/10 Q1018
EGPU - Tiree, United Kingdom
Distance from station: WSW 64mi, 103km
Updated: 21/02/2019 12:50
Mostly cloudy
Mostly cloudy
 Wind from SE
Wind: SE 21 mph , 33 km/h
Temperature: 10°C
Wind Chill: 6°C
Dew Point: 9°C
Humidity: 94%
Barometer: 1015 hPa
Clouds: Mostly cloudy
Visibility: 5 miles , 8 km
Cloud details: Mostly cloudy 640 m
Mostly cloudy 823 m
2019/02/21 12:50 EGPU 211250Z AUTO 14018KT 8000 BKN021/// BKN027/// 10/09 Q1015
EGPF - Glasgow, United Kingdom
Distance from station: SSE 66mi, 107km
Updated: 21/02/2019 12:50
Overcast
Overcast
 Wind from SSW
Wind: SSW 13 mph , 20 km/h
Temperature: 13°C
Dew Point: 10°C
Humidity: 82%
Barometer: 1020 hPa
Clouds: Overcast
Visibility: 6 miles , 10 km
Cloud details: Overcast 457 m
2019/02/21 12:50 EGPF 211250Z AUTO 20011KT 160V230 9999 OVC015 13/10 Q1020
 
EGPE - Inverness, United Kingdom
Distance from station: NE 71mi, 114km
Updated: 21/02/2019 12:50
Few Clouds
Few Clouds
 Wind from SW
Wind: SW 18 mph , 30 km/h
Temperature: 16°C
Dew Point: 11°C
Humidity: 72%
Barometer: 1016 hPa
Clouds: Few Clouds
Visibility: 6 miles , 10 km
Cloud details: Few Clouds 762 m
2019/02/21 12:50 EGPE 211250Z 23016KT 9999 FEW025 16/11 Q1016
EGPI - Islay/Port Ellen, United Kingdom
Distance from station: SSW 81mi, 131km
Updated: 21/02/2019 12:50
Partly cloudy
Partly cloudy
 Wind from SE
Wind: SE 17 mph , 28 km/h
Temperature: 12°C
Dew Point: 10°C
Humidity: 88%
Barometer: 1017 hPa
Clouds: Partly cloudy
Visibility: 6 miles , 10 km
Cloud details: Partly cloudy 610 m
2019/02/21 12:50 EGPI 211250Z AUTO 13015KT 090V150 9999 SCT020/// 12/10 Q1017
EGPN - Dundee/Riverside, United Kingdom
Distance from station: E 86mi, 138km
Updated: 21/02/2019 12:50
Mostly cloudy
Mostly cloudy
 Wind from WSW
Wind: WSW 12 mph , 19 km/h
Temperature: 11°C
Dew Point: 9°C
Humidity: 88%
Barometer: 1019 hPa
Clouds: Mostly cloudy
Visibility: 6 miles , 9 km
Cloud details: Few Clouds 305 m
Mostly cloudy 762 m
2019/02/21 12:50 EGPN 211250Z 25010KT 9000 FEW010 BKN025 11/09 Q1019
 
EGPK - Prestwick, United Kingdom
Distance from station: SSE 88mi, 141km
Updated: 21/02/2019 12:50
Mostly cloudy
Mostly cloudy
 Wind from SSW
Wind: SSW 9 mph , 15 km/h
Temperature: 13°C
Dew Point: 10°C
Humidity: 82%
Barometer: 1021 hPa
Clouds: Mostly cloudy
Visibility: 6 miles , 10 km
Cloud details: Partly cloudy 396 m
Mostly cloudy 914 m
2019/02/21 12:50 EGPK 211250Z 20008KT 160V230 9999 SCT013 BKN030 13/10 Q1021
EGPH - Edinburgh, United Kingdom
Distance from station: SE 89mi, 143km
Updated: 21/02/2019 12:50
Partly cloudy
Partly cloudy
 Wind from SW
Wind: SW 20 mph , 31 km/h
Temperature: 13°C
Dew Point: 9°C
Humidity: 77%
Barometer: 1020 hPa
Clouds: Partly cloudy
Visibility: 6 miles , 10 km
Cloud details: Partly cloudy 579 m
2019/02/21 12:50 EGPH 211250Z 22017KT 9999 SCT019 13/09 Q1020
EGQK - RAF Kinloss, United Kingdom
Distance from station: NE 90mi, 144km
Updated: 21/02/2019 12:50
Few Clouds
Few Clouds
 Wind from WSW
Wind: WSW 8 mph , 13 km/h
Temperature: 16°C
Dew Point: 11°C
Humidity: 72%
Barometer: 1016 hPa
Clouds: Few Clouds
Visibility: 6 miles , 10 km
Cloud details: Few Clouds 732 m
2019/02/21 12:50 EGQK 211250Z AUTO 25007KT 9999 FEW024/// 16/11 Q1016
 
EGEC - Campbeltown, United Kingdom
Distance from station: S 90mi, 145km
Updated: 21/02/2019 12:50
Partly cloudy
Partly cloudy
 Wind from ESE
Wind: ESE 14 mph , 22 km/h
Temperature: 11°C
Dew Point: 10°C
Humidity: 94%
Barometer: 1018 hPa
Clouds: Partly cloudy
Visibility: 6 miles , 10 km
Cloud details: Partly cloudy 244 m
Partly cloudy 610 m
2019/02/21 12:50 EGEC 211250Z 11012KT 9999 SCT008 SCT020 11/10 Q1018
EGQA - Tain Range, United Kingdom
Distance from station: NNE 91mi, 146km
Updated: 21/02/2019 11:50
NOT Current
Partly cloudy
Partly cloudy
 Wind from S
Wind: S 10 mph , 17 km/h
Clouds: Partly cloudy
Visibility: 6 miles , 10 km
Cloud details: Few Clouds 549 m
Partly cloudy 853 m
2019/02/21 11:50 EGQA 211150Z 19009KT 9999 FEW018 SCT028 12/// Q1015 BLU
EGQL - RAF Leuchars, United Kingdom
Distance from station: ESE 93mi, 149km
Updated: 21/02/2019 12:50
Mostly cloudy
Mostly cloudy
 Wind from WSW
Wind: WSW 14 mph , 22 km/h
Temperature: 13°C
Dew Point: 11°C
Humidity: 88%
Barometer: 1019 hPa
Clouds: Mostly cloudy
Visibility: 6 miles , 10 km
Cloud details: Few Clouds 457 m
Mostly cloudy 549 m
2019/02/21 12:50 EGQL 211250Z 25012KT 9999 FEW015 BKN018 13/11 Q1019 WHT
 
EGPL - Benbecula, United Kingdom
Distance from station: WNW 96mi, 154km
Updated: 21/02/2019 12:50
Mostly cloudy
Mostly cloudy
 Wind from S
Wind: S 24 mph , 39 km/h
Temperature: 12°C
Dew Point: 10°C
Humidity: 88%
Barometer: 1013 hPa
Clouds: Mostly cloudy
Visibility: 6 miles , 10 km
Cloud details: Few Clouds 183 m
Mostly cloudy 579 m
2019/02/21 12:50 EGPL 211250Z 17021KT 9999 FEW006 BKN019 12/10 Q1013
EGQS - RAF Lossiemouth, United Kingdom
Distance from station: NE 99mi, 160km
Updated: 21/02/2019 12:50
Mostly cloudy
Mostly cloudy
 Wind from SW
Wind: SW 10 mph , 17 km/h
Temperature: 17°C
Dew Point: 11°C
Humidity: 68%
Barometer: 1016 hPa
Clouds: Mostly cloudy
Visibility: 6 miles , 10 km
Cloud details: Few Clouds 732 m
Partly cloudy 4267 m
Mostly cloudy 7620 m
2019/02/21 12:50 EGQS 211250Z 22009KT 9999 FEW024 SCT140 BKN250 17/11 Q1016 BLU NOSIG
EGPO - Stornoway, United Kingdom
Distance from station: NNW 111mi, 179km
Updated: 21/02/2019 12:50
Light rain, Drizzle, Overcast
Light rain, Drizzle, Overcast
 Wind from S
Wind: S 20 mph , 31 km/h
Temperature: 11°C
Dew Point: 10°C
Humidity: 94%
Barometer: 1014 hPa
Summary: Light rain, Drizzle
Clouds: Overcast
Visibility: 2 miles , 4 km
Cloud details: Partly cloudy 152 m
Overcast 213 m
2019/02/21 12:50 EGPO 211250Z 19017KT 4000 -RADZ SCT005 OVC007 11/10 Q1014
 
EGPD - Aberdeen/Dyce, United Kingdom
Distance from station: ENE 118mi, 190km
Updated: 21/02/2019 12:50
Clear
Clear
 Wind from SE
Wind: SE 5 mph , 7 km/h
Temperature: 15°C
Dew Point: 11°C
Humidity: 77%
Barometer: 1017 hPa
Summary: Clear
Visibility: greater than 7 miles , 10 km
2019/02/21 12:50 EGPD 211250Z 13004KT 090V180 CAVOK 15/11 Q1017 NOSIG
EGAE - Eglinton/Londond, United Kingdom
Distance from station: SSW 138mi, 222km
Updated: 21/02/2019 12:50
Few Clouds
Few Clouds
 Wind from S
Wind: S 21 mph , 33 km/h, Gust: 32 mph , 52 km/h
Temperature: 15°C
Dew Point: 10°C
Humidity: 72%
Barometer: 1015 hPa
Clouds: Few Clouds
Visibility: 6 miles , 10 km
Cloud details: Few Clouds 610 m
2019/02/21 12:50 EGAE 211250Z 19018G28KT 9999 FEW020 15/10 Q1015
EGPC - Wick, United Kingdom
Distance from station: NNE 144mi, 232km
Updated: 21/02/2019 12:50
Clear
Clear
 Wind from SSW
Wind: SSW 9 mph , 15 km/h
Temperature: 11°C
Dew Point: 9°C
Humidity: 88%
Barometer: 1015 hPa
Summary: Clear
Visibility: greater than 7 miles , 10 km
2019/02/21 12:50 EGPC 211250Z 20008KT CAVOK 11/09 Q1015

Metar display script from Saratoga-Weather.org